createdAt,value
2018-12-14T00:01:59.952Z,90.90
2018-12-14T00:07:06.840Z,91.20
2018-12-14T00:12:11.827Z,91.00
2018-12-14T00:17:16.629Z,91.20
2018-12-14T00:22:21.483Z,91.00
2018-12-14T00:27:26.651Z,91.00
2018-12-14T00:32:31.637Z,90.90
2018-12-14T00:37:36.459Z,91.20
2018-12-14T00:42:41.289Z,91.20
2018-12-14T00:47:46.235Z,91.00
2018-12-14T00:52:50.973Z,91.00
2018-12-14T00:57:56.036Z,91.30
2018-12-14T01:03:01.026Z,90.60
2018-12-14T01:08:06.051Z,90.80
2018-12-14T01:13:11.073Z,90.80
2018-12-14T01:18:16.059Z,90.60
2018-12-14T01:23:21.095Z,90.60
2018-12-14T01:28:25.918Z,91.30
2018-12-14T01:33:30.835Z,91.40
2018-12-14T01:38:35.702Z,91.70
2018-12-14T01:43:40.704Z,91.50
2018-12-14T01:48:45.702Z,91.50
2018-12-14T01:53:50.652Z,91.50
2018-12-14T01:58:55.705Z,91.50
2018-12-14T02:04:00.676Z,91.60
2018-12-14T02:09:07.400Z,91.90
2018-12-14T02:14:12.307Z,92.00
2018-12-14T02:19:17.157Z,92.50
2018-12-14T02:24:21.981Z,91.80
2018-12-14T02:29:26.904Z,91.70
2018-12-14T02:34:31.941Z,91.40
2018-12-14T02:39:36.823Z,91.40
2018-12-14T02:44:42.159Z,91.40
2018-12-14T02:49:47.144Z,91.20
2018-12-14T02:54:52.017Z,91.20
2018-12-14T02:59:56.837Z,90.70
2018-12-14T03:05:01.873Z,89.10
2018-12-14T03:10:07.369Z,89.80
2018-12-14T03:15:12.493Z,90.10
2018-12-14T03:20:17.454Z,90.00
2018-12-14T03:25:22.518Z,90.50
2018-12-14T03:30:27.420Z,90.10
2018-12-14T03:35:32.186Z,90.30
2018-12-14T03:40:37.168Z,89.10
2018-12-14T03:45:42.095Z,90.00
2018-12-14T03:50:47.030Z,90.00
2018-12-14T03:55:52.126Z,90.00
2018-12-14T04:00:57.068Z,90.00
2018-12-14T04:06:01.873Z,89.00
2018-12-14T04:11:06.845Z,90.00
2018-12-14T04:16:11.757Z,90.10
2018-12-14T04:21:16.721Z,89.60
2018-12-14T04:26:21.580Z,89.90
2018-12-14T04:31:26.504Z,90.00
2018-12-14T04:36:31.588Z,90.10
2018-12-14T04:41:38.550Z,90.60
2018-12-14T04:46:43.540Z,90.50
2018-12-14T04:51:48.577Z,90.10
2018-12-14T04:56:53.424Z,90.00
2018-12-14T05:01:58.471Z,90.10
2018-12-14T05:07:03.512Z,90.20
2018-12-14T05:12:08.467Z,90.10
2018-12-14T05:17:13.517Z,90.10
2018-12-14T05:22:18.330Z,90.60
2018-12-14T05:27:23.299Z,89.80
2018-12-14T05:32:28.238Z,90.30
2018-12-14T05:37:33.159Z,90.20
2018-12-14T05:42:38.156Z,89.70
2018-12-14T05:47:43.089Z,90.00
2018-12-14T05:52:47.936Z,90.10
2018-12-14T05:57:52.874Z,90.20
2018-12-14T06:02:57.737Z,90.30
2018-12-14T06:08:02.702Z,89.90
2018-12-14T06:13:09.160Z,90.30
2018-12-14T06:18:14.322Z,89.30
2018-12-14T06:23:19.241Z,88.50
2018-12-14T06:28:26.027Z,89.50
2018-12-14T06:33:31.211Z,89.00
2018-12-14T06:38:36.151Z,88.50
2018-12-14T06:43:41.098Z,90.10
2018-12-14T06:48:46.282Z,89.70
2018-12-14T06:53:51.125Z,89.60
2018-12-14T06:58:55.949Z,90.00
2018-12-14T07:04:00.999Z,89.40
2018-12-14T07:09:07.047Z,89.30
2018-12-14T07:14:11.937Z,89.20
2018-12-14T07:19:17.071Z,89.60
2018-12-14T07:24:21.955Z,90.20
2018-12-14T07:29:26.864Z,90.00
2018-12-14T07:34:31.824Z,88.40
2018-12-14T07:39:36.886Z,89.50
2018-12-14T07:44:42.066Z,88.90
2018-12-14T07:49:47.077Z,89.50
2018-12-14T07:54:51.978Z,90.00
2018-12-14T07:59:56.941Z,89.70
2018-12-14T08:05:01.719Z,89.80
2018-12-14T08:10:07.867Z,88.20
2018-12-14T08:15:13.502Z,89.30
2018-12-14T08:20:18.312Z,89.40
2018-12-14T08:25:23.343Z,88.80
2018-12-14T08:30:28.563Z,89.30
2018-12-14T08:35:33.543Z,89.20
2018-12-14T08:40:38.392Z,88.50
2018-12-14T08:45:43.302Z,89.70
2018-12-14T08:50:48.533Z,89.00
2018-12-14T08:55:53.504Z,88.40
2018-12-14T09:00:58.515Z,88.70
2018-12-14T09:06:03.323Z,87.90
2018-12-14T09:11:08.270Z,88.10
2018-12-14T09:16:13.221Z,87.60
2018-12-14T09:21:18.144Z,87.90
2018-12-14T09:26:23.214Z,86.70
2018-12-14T09:31:28.418Z,86.30
2018-12-14T09:36:33.419Z,84.60
2018-12-14T09:41:38.263Z,84.50
2018-12-14T09:46:43.214Z,85.40
2018-12-14T09:51:48.093Z,85.30
2018-12-14T09:56:53.016Z,86.50
2018-12-14T10:01:58.083Z,84.90
2018-12-14T10:07:02.935Z,84.20
2018-12-14T10:12:07.860Z,84.40
2018-12-14T10:17:12.719Z,84.50
2018-12-14T10:22:17.576Z,84.30
2018-12-14T10:27:22.589Z,83.20
2018-12-14T10:32:27.450Z,83.80
2018-12-14T10:37:32.309Z,82.50
2018-12-14T10:42:37.357Z,81.50
2018-12-14T10:47:42.220Z,81.30
2018-12-14T10:52:47.151Z,80.30
2018-12-14T10:57:52.364Z,81.10
2018-12-14T11:02:57.140Z,80.00
2018-12-14T11:08:01.893Z,78.80
2018-12-14T11:13:06.941Z,79.80
2018-12-14T11:18:11.774Z,79.10
2018-12-14T11:23:16.640Z,79.70
2018-12-14T11:28:21.598Z,77.00
2018-12-14T11:33:26.432Z,77.00
2018-12-14T11:38:31.367Z,76.20
2018-12-14T11:43:36.431Z,76.50
2018-12-14T11:48:41.385Z,77.70
2018-12-14T11:53:46.241Z,78.20
2018-12-14T11:58:51.038Z,77.20
2018-12-14T12:03:55.897Z,76.70
2018-12-14T12:09:00.864Z,76.70
2018-12-14T12:14:05.814Z,76.00
2018-12-14T12:19:10.637Z,75.00
2018-12-14T12:24:15.577Z,73.80
2018-12-14T12:29:20.543Z,74.20
2018-12-14T12:34:25.512Z,75.00
2018-12-14T12:39:30.422Z,74.30
2018-12-14T12:44:35.273Z,71.50
2018-12-14T12:49:40.137Z,71.20
2018-12-14T12:54:45.104Z,70.30
2018-12-14T12:59:49.993Z,70.70
2018-12-14T13:04:55.001Z,73.30
2018-12-14T13:09:59.930Z,69.40
2018-12-14T13:15:05.387Z,69.60
2018-12-14T13:20:10.332Z,70.80
2018-12-14T13:25:15.208Z,70.50
2018-12-14T13:30:20.142Z,72.60
2018-12-14T13:35:25.412Z,72.40
2018-12-14T13:40:30.520Z,73.40
2018-12-14T13:45:35.470Z,74.00
2018-12-14T13:50:40.325Z,74.40
2018-12-14T13:55:45.415Z,75.70
2018-12-14T14:00:50.332Z,73.90
2018-12-14T14:05:55.179Z,71.00
2018-12-14T14:11:00.124Z,69.80
2018-12-14T14:16:05.075Z,69.20
2018-12-14T14:21:10.031Z,69.90
2018-12-14T14:26:15.083Z,68.50
2018-12-14T14:31:19.922Z,68.20
2018-12-14T14:36:24.890Z,69.40
2018-12-14T14:41:29.690Z,69.10
2018-12-14T14:46:34.517Z,70.60
2018-12-14T14:51:39.394Z,70.60
2018-12-14T14:56:44.337Z,69.90
2018-12-14T15:01:49.178Z,69.70
2018-12-14T15:06:54.145Z,72.90
2018-12-14T15:11:58.980Z,72.20
2018-12-14T15:17:03.903Z,71.80
2018-12-14T15:22:08.893Z,72.70
2018-12-14T15:27:13.720Z,73.50
2018-12-14T15:32:18.953Z,76.40
2018-12-14T15:37:23.832Z,74.60
2018-12-14T15:42:28.900Z,73.20
2018-12-14T15:47:33.836Z,73.80
2018-12-14T15:52:38.742Z,73.90
2018-12-14T15:57:43.722Z,73.80
2018-12-14T16:02:48.683Z,74.60
2018-12-14T16:07:53.532Z,76.40
2018-12-14T16:12:58.677Z,75.80
2018-12-14T16:18:04.749Z,77.60
2018-12-14T16:23:09.722Z,77.20
2018-12-14T16:28:14.629Z,77.50
2018-12-14T16:33:19.597Z,76.00
2018-12-14T16:38:24.427Z,77.50
2018-12-14T16:43:29.349Z,76.30
2018-12-14T16:48:34.422Z,78.70
2018-12-14T16:53:44.525Z,77.60
2018-12-14T16:58:49.475Z,78.80
2018-12-14T17:03:54.385Z,78.40
2018-12-14T17:08:59.347Z,78.30
2018-12-14T17:14:04.277Z,79.70
2018-12-14T17:19:09.235Z,80.00
2018-12-14T17:24:14.214Z,80.40
2018-12-14T17:29:19.025Z,80.30
2018-12-14T17:34:23.963Z,79.50
2018-12-14T17:39:29.239Z,80.40
2018-12-14T17:44:34.088Z,80.40
2018-12-14T17:49:38.935Z,80.90
2018-12-14T17:54:44.499Z,81.70
2018-12-14T17:59:49.347Z,83.40
2018-12-14T18:04:54.325Z,83.90
2018-12-14T18:10:00.194Z,83.00
2018-12-14T18:15:05.643Z,83.60
2018-12-14T18:20:10.871Z,83.70
2018-12-14T18:25:16.610Z,84.60
2018-12-14T18:30:21.584Z,84.60
2018-12-14T18:35:27.462Z,84.60
2018-12-14T18:40:32.645Z,85.10
2018-12-14T18:45:37.460Z,84.20
2018-12-14T18:50:42.520Z,85.00
2018-12-14T18:55:47.505Z,85.10
2018-12-14T19:00:52.395Z,84.50
2018-12-14T19:05:57.345Z,85.30
2018-12-14T19:11:02.186Z,86.10
2018-12-14T19:16:07.107Z,86.10
2018-12-14T19:21:12.252Z,86.10
2018-12-14T19:26:17.783Z,85.80
2018-12-14T19:31:22.716Z,86.10
2018-12-14T19:36:27.757Z,86.10
2018-12-14T19:41:32.777Z,85.20
2018-12-14T19:46:37.752Z,86.00
2018-12-14T19:51:42.643Z,85.80
2018-12-14T19:56:47.908Z,85.80
2018-12-14T20:01:52.988Z,85.30
2018-12-14T20:06:57.849Z,85.20
2018-12-14T20:12:02.826Z,85.20
2018-12-14T20:17:07.651Z,86.30
2018-12-14T20:22:12.645Z,86.10
2018-12-14T20:27:17.544Z,85.50
2018-12-14T20:32:22.471Z,85.30
2018-12-14T20:37:27.445Z,85.30
2018-12-14T20:42:32.606Z,86.80
2018-12-14T20:47:37.493Z,86.10
2018-12-14T20:52:42.466Z,86.40
2018-12-14T20:57:47.413Z,87.30
2018-12-14T21:02:52.177Z,86.80
2018-12-14T21:07:57.035Z,85.70
2018-12-14T21:13:01.943Z,85.40
2018-12-14T21:18:07.926Z,85.10
2018-12-14T21:23:13.597Z,84.80
2018-12-14T21:28:18.649Z,85.20
2018-12-14T21:33:24.551Z,85.20
2018-12-14T21:38:29.396Z,85.30
2018-12-14T21:43:34.213Z,85.70
2018-12-14T21:48:39.349Z,86.20
2018-12-14T21:53:44.315Z,85.70
2018-12-14T21:58:49.232Z,85.30
2018-12-14T22:03:54.109Z,85.20
2018-12-14T22:08:58.926Z,85.30
2018-12-14T22:14:03.876Z,85.00
2018-12-14T22:19:08.738Z,84.90
2018-12-14T22:24:13.674Z,84.40
2018-12-14T22:29:18.431Z,83.70
2018-12-14T22:34:23.267Z,83.10
2018-12-14T22:39:30.197Z,83.50
2018-12-14T22:44:35.206Z,81.50
2018-12-14T22:49:40.281Z,81.30
2018-12-14T22:54:45.108Z,80.10
2018-12-14T22:59:50.061Z,79.00
2018-12-14T23:04:55.031Z,79.20
2018-12-14T23:09:59.836Z,80.40
2018-12-14T23:15:04.909Z,79.50
2018-12-14T23:20:09.946Z,80.10
2018-12-14T23:25:14.834Z,79.30
2018-12-14T23:30:19.660Z,79.60
2018-12-14T23:35:24.582Z,79.80
2018-12-14T23:40:29.541Z,79.00
2018-12-14T23:45:34.486Z,78.50
2018-12-14T23:50:39.308Z,78.00
2018-12-14T23:55:44.167Z,77.90
